Aegean Navigator — SWBI — position and weather

sailwx.info

Track history (hours):
 
Tides and Currents Weather Stations Pressure Air Temp Water Temp Dewpoint Dewpoint Depression Visibility Wind Speed Wind Dir Waves Ship Positions

Aegean Navigator

Last reported at 2016-Jul-27 10:27 UTC. Time now 2016-Jul-27 15:22 UTC.
Position N 36°48' W 006°44'.

Length 274 m; draft 9 m.

Type: Ship. MMSI: 240634000.

Date/timePositionNaut miles runAvg speedWind from/ knotsBaromVisibWave heightAir tempDewpointWater temp
2016-Jul-27 10:27N 36°48' W 006°44'0 0.0
2016-Jul-27 09:33N 36°48' W 006°44'7 6.6
2016-Jul-27 08:33N 36°45' W 006°52'13 9.8
2016-Jul-27 07:13N 36°45' W 007°08'7 9.9
2016-Jul-27 06:33N 36°46' W 007°16'6 6.2
2016-Jul-27 05:32N 36°43' W 007°09'5 5.2
2016-Jul-27 04:33N 36°45' W 007°15'1010.0
2016-Jul-27 03:33N 36°43' W 007°27'1010.1
2016-Jul-27 02:33N 36°39' W 007°39'1 1.0
2016-Jul-27 01:33N 36°38' W 007°38'10 9.8
2016-Jul-27 00:33N 36°37' W 007°50'8 7.8
2016-Jul-26 23:33N 36°33' W 007°58'6 6.4
2016-Jul-26 22:33N 36°35' W 008°06'1010.2
2016-Jul-26 21:33N 36°33' W 008°18'1010.1
2016-Jul-26 20:33N 36°31' W 008°31'10 9.8
2016-Jul-26 19:33N 36°29' W 008°43'10 9.5
2016-Jul-26 18:33N 36°27' W 008°54'9 9.2
2016-Jul-26 17:33N 36°27' W 009°06'10 9.6
2016-Jul-26 16:33N 36°29' W 009°17'9 9.4
2016-Jul-26 15:33N 36°35' W 009°27'9 9.3
2016-Jul-26 14:33N 36°42' W 009°34'1010.3
2016-Jul-26 13:34N 36°51' W 009°40'1312.8
2016-Jul-26 12:34N 37°04' W 009°43'1110.6
2016-Jul-26 11:34N 37°14' W 009°46'1110.5
2016-Jul-26 10:33N 37°25' W 009°49'1110.8
2016-Jul-26 09:33N 37°35' W 009°52'1110.9
2016-Jul-26 08:34N 37°46' W 009°55'1110.9
2016-Jul-26 07:33N 37°56' W 009°58'1110.9
2016-Jul-26 06:33N 38°07' W 010°02'1111.0
2016-Jul-26 05:33N 38°18' W 010°05'1111.3
2016-Jul-26 04:33N 38°29' W 010°08'1111.1
2016-Jul-26 03:33N 38°39' W 010°11'1111.1
2016-Jul-26 02:34N 38°50' W 010°12'1110.6
2016-Jul-26 01:33N 39°01' W 010°12'1111.0
2016-Jul-26 00:34N 39°12' W 010°12'1110.8
2016-Jul-25 23:34N 39°23' W 010°12'1111.1
2016-Jul-25 22:33N 39°34' W 010°11'1110.6
2016-Jul-25 21:33N 39°45' W 010°11'1110.7
2016-Jul-25 20:34N 39°55' W 010°12'2110.5
2016-Jul-25 18:33N 40°16' W 010°11'41010.4
2016-Jul-24 03:10N 46°49' W 007°29'6 9.6
2016-Jul-24 02:33N 46°54' W 007°25'1110.4
2016-Jul-24 01:33N 47°03' W 007°18'1010.3
2016-Jul-24 00:34N 47°12' W 007°10'1010.2
2016-Jul-23 23:33N 47°21' W 007°03'1111.3
2016-Jul-23 22:33N 47°31' W 006°55'1312.1
2016-Jul-23 21:28N 47°42' W 006°46'1111.3
2016-Jul-23 20:32N 47°52' W 006°38'1110.9
2016-Jul-23 19:30N 48°02' W 006°30'1010.2
2016-Jul-23 18:31N 48°10' W 006°23'11 9.1
2016-Jul-23 17:18N 48°20' W 006°15'25 9.0
2016-Jul-23 14:29N 48°42' W 005°57'1010.6
2016-Jul-23 13:33N 48°51' W 005°49'1211.1
2016-Jul-23 12:28N 48°59' W 005°35'1111.5
2016-Jul-23 11:33N 49°04' W 005°21'1211.3
2016-Jul-23 10:32N 49°10' W 005°06'1010.4
2016-Jul-23 09:33N 49°15' W 004°53'13 9.1
2016-Jul-23 08:09N 49°22' W 004°36'5 8.6
2016-Jul-23 07:33N 49°24' W 004°29'27 9.2
2016-Jul-23 04:34N 49°38' W 003°52'1211.5
2016-Jul-23 03:34N 49°44' W 003°37'1212.4
2016-Jul-23 02:34N 49°50' W 003°21'1212.1
2016-Jul-23 01:33N 49°57' W 003°05'1111.0
2016-Jul-23 00:33N 50°01' W 002°49'10 9.8
2016-Jul-22 23:32N 50°03' W 002°34'8 8.4
2016-Jul-22 22:34N 50°05' W 002°21'7 7.1
2016-Jul-22 21:34N 50°06' W 002°10'7 6.8
2016-Jul-22 20:33N 50°08' W 002°00'8 7.8
2016-Jul-22 19:33N 50°10' W 001°48'10 9.8
2016-Jul-22 18:34N 50°13' W 001°34'1211.8
2016-Jul-22 17:34N 50°16' W 001°16'1313.4
2016-Jul-22 16:33N 50°20' W 000°56'1313.2
2016-Jul-22 15:34N 50°23' W 000°36'1312.6
2016-Jul-22 14:34N 50°26' W 000°17'1211.6
2016-Jul-22 13:33N 50°29' E 000°01'1110.6
2016-Jul-22 12:34N 50°32' E 000°17'10 9.9
2016-Jul-22 11:33N 50°35' E 000°32'9 9.0
2016-Jul-22 10:33N 50°40' E 000°44'1110.0
2016-Jul-22 09:26N 50°47' E 000°57'1111.7
2016-Jul-22 08:32N 50°53' E 001°11'1313.1
2016-Jul-22 07:34N 51°03' E 001°25'2311.3
2016-Jul-22 05:34N 51°18' E 001°50'10 9.6
2016-Jul-22 04:34N 51°26' E 001°59'9 8.7
2016-Jul-22 03:33N 51°33' E 002°09'8 8.5
2016-Jul-22 02:34N 51°39' E 002°17'9 8.8
2016-Jul-22 01:34N 51°46' E 002°27'10 9.8
2016-Jul-22 00:34N 51°53' E 002°37'1110.8
2016-Jul-21 23:34N 52°01' E 002°49'1110.8
2016-Jul-21 22:34N 52°02' E 003°06'1111.3
2016-Jul-21 21:34N 52°03' E 003°25'1111.2
2016-Jul-21 20:33N 52°03' E 003°43'10 9.6
2016-Jul-21 19:34N 52°01' E 003°58'7 7.2
2016-Jul-21 18:33N 51°57' E 004°08'0 0.0
2016-Jul-21 17:33N 51°57' E 004°08'0 0.0
2016-Jul-21 16:33N 51°57' E 004°08'0 0.0
2016-Jul-21 15:33N 51°57' E 004°08'0 0.0
2016-Jul-21 14:33N 51°57' E 004°08'0 0.0
2016-Jul-21 13:33N 51°57' E 004°08'0 0.0
2016-Jul-21 12:33N 51°57' E 004°08'0 0.0
2016-Jul-21 11:33N 51°57' E 004°08'0 0.0
2016-Jul-21 10:33N 51°57' E 004°08'0 0.0
2016-Jul-21 09:33N 51°57' E 004°08'0 0.0
2016-Jul-21 08:30N 51°57' E 004°08'0 0.0
2016-Jul-21 07:33N 51°57' E 004°08'0 0.0
2016-Jul-21 06:33N 51°57' E 004°08'0 0.0
2016-Jul-21 05:33N 51°57' E 004°08'0 0.0
2016-Jul-21 04:33N 51°57' E 004°08'0 0.0
2016-Jul-21 03:33N 51°57' E 004°08'0 0.0
2016-Jul-21 02:33N 51°57' E 004°08'0 0.0
2016-Jul-21 01:33N 51°57' E 004°08'0 0.0
2016-Jul-21 00:33N 51°57' E 004°08'0 0.0
2016-Jul-20 23:33N 51°57' E 004°08'0 0.0
2016-Jul-20 22:33N 51°57' E 004°08'0 0.0
2016-Jul-20 21:33N 51°57' E 004°08'0 0.0
2016-Jul-20 20:33N 51°57' E 004°08'0 0.0
2016-Jul-20 19:33N 51°57' E 004°08'0 0.0
2016-Jul-20 18:33N 51°57' E 004°08'0 0.0
2016-Jul-20 17:33N 51°57' E 004°08'0 0.0
2016-Jul-20 16:33N 51°57' E 004°08'0 0.0
2016-Jul-20 15:33N 51°57' E 004°08'0 0.0
2016-Jul-20 14:33N 51°57' E 004°08'0 0.0
2016-Jul-20 13:33N 51°57' E 004°08'0 0.0
2016-Jul-20 12:33N 51°57' E 004°08'0 0.0
2016-Jul-20 11:30N 51°57' E 004°08'0 0.0
2016-Jul-20 10:33N 51°57' E 004°08'0 0.0
2016-Jul-20 09:33N 51°57' E 004°08'0 0.0
2016-Jul-20 08:33N 51°57' E 004°08'0 0.0
2016-Jul-20 07:33N 51°57' E 004°08'0 0.0
2016-Jul-20 06:33N 51°57' E 004°08'0 0.3
2016-Jul-20 05:33N 51°57' E 004°08'5 5.3
2016-Jul-20 04:33N 51°60' E 004°00'9 8.8
2016-Jul-20 03:34N 52°02' E 003°46'8 8.0
2016-Jul-20 02:33N 51°58' E 003°35'8 7.6
2016-Jul-20 01:33N 51°56' E 003°23'1111.1
2016-Jul-20 00:33N 51°53' E 003°06'1312.5
2016-Jul-19 23:31N 51°48' E 002°47'1111.5
2016-Jul-19 22:33N 51°42' E 002°32'1110.9
2016-Jul-19 21:33N 51°34' E 002°20'1010.0
2016-Jul-19 20:33N 51°26' E 002°09'9 9.4
2016-Jul-19 19:33N 51°17' E 002°08'9 8.7
2016-Jul-19 18:33N 51°12' E 001°57'9 9.3
2016-Jul-19 17:33N 51°07' E 001°44'10 9.7
2016-Jul-19 16:33N 50°59' E 001°34'1110.6
2016-Jul-19 15:33N 50°50' E 001°25'1111.0
2016-Jul-19 14:33N 50°40' E 001°18'3311.1
2016-Jul-19 11:33N 50°24' E 000°33'1110.8
2016-Jul-19 10:33N 50°22' E 000°16'1110.9
2016-Jul-19 09:33N 50°19' W 000°00'1211.8
2016-Jul-19 08:33N 50°16' W 000°18'1212.3
2016-Jul-19 07:33N 50°13' W 000°37'3913.1
2016-Jul-19 04:33N 50°03' W 001°36'1110.9
2016-Jul-19 03:33N 50°00' W 001°52'11 9.5
2016-Jul-19 02:23N 49°57' W 002°09'7 8.7
2016-Jul-19 01:33N 49°55' W 002°20'9 8.7
2016-Jul-19 00:33N 49°53' W 002°33'9 9.4
2016-Jul-18 23:33N 49°51' W 002°47'1010.3
2016-Jul-18 22:33N 49°47' W 003°02'1111.0
2016-Jul-18 21:33N 49°41' W 003°16'1111.2
2016-Jul-18 20:33N 49°35' W 003°31'1111.4
2016-Jul-18 19:33N 49°30' W 003°46'1211.8
2016-Jul-18 18:33N 49°24' W 004°02'1212.1
2016-Jul-18 17:33N 49°18' W 004°18'1212.5
2016-Jul-18 16:33N 49°11' W 004°34'1312.8
2016-Jul-18 15:33N 49°05' W 004°51'1312.9
2016-Jul-18 14:33N 48°58' W 005°08'1412.8
2016-Jul-18 13:27N 48°51' W 005°27'1612.1
2016-Jul-18 12:06N 48°39' W 005°43'812.4
2016-Jul-18 11:30N 48°32' W 005°48'  
Track history (hours):
 
Tides and Currents Weather Stations Pressure Air Temp Water Temp Dewpoint Dewpoint Depression Visibility Wind Speed Wind Dir Waves Ship Positions

Aegean Navigator

Last reported at 2016-Jul-27 10:27 UTC. Time now 2016-Jul-27 15:22 UTC.
Position N 36°48' W 006°44'.

Length 274 m; draft 9 m.

Type: Ship. MMSI: 240634000.

Date/timePositionNaut miles runAvg speedWind from/ knotsBaromVisibWave heightAir tempDewpointWater temp
2016-Jul-27 10:27N 36°48' W 006°44'0 0.0
2016-Jul-27 09:33N 36°48' W 006°44'7 6.6
2016-Jul-27 08:33N 36°45' W 006°52'13 9.8
2016-Jul-27 07:13N 36°45' W 007°08'7 9.9
2016-Jul-27 06:33N 36°46' W 007°16'6 6.2
2016-Jul-27 05:32N 36°43' W 007°09'5 5.2
2016-Jul-27 04:33N 36°45' W 007°15'1010.0
2016-Jul-27 03:33N 36°43' W 007°27'1010.1
2016-Jul-27 02:33N 36°39' W 007°39'1 1.0
2016-Jul-27 01:33N 36°38' W 007°38'10 9.8
2016-Jul-27 00:33N 36°37' W 007°50'8 7.8
2016-Jul-26 23:33N 36°33' W 007°58'6 6.4
2016-Jul-26 22:33N 36°35' W 008°06'1010.2
2016-Jul-26 21:33N 36°33' W 008°18'1010.1
2016-Jul-26 20:33N 36°31' W 008°31'10 9.8
2016-Jul-26 19:33N 36°29' W 008°43'10 9.5
2016-Jul-26 18:33N 36°27' W 008°54'9 9.2
2016-Jul-26 17:33N 36°27' W 009°06'10 9.6
2016-Jul-26 16:33N 36°29' W 009°17'9 9.4
2016-Jul-26 15:33N 36°35' W 009°27'9 9.3
2016-Jul-26 14:33N 36°42' W 009°34'1010.3
2016-Jul-26 13:34N 36°51' W 009°40'1312.8
2016-Jul-26 12:34N 37°04' W 009°43'1110.6
2016-Jul-26 11:34N 37°14' W 009°46'1110.5
2016-Jul-26 10:33N 37°25' W 009°49'1110.8
2016-Jul-26 09:33N 37°35' W 009°52'1110.9
2016-Jul-26 08:34N 37°46' W 009°55'1110.9
2016-Jul-26 07:33N 37°56' W 009°58'1110.9
2016-Jul-26 06:33N 38°07' W 010°02'1111.0
2016-Jul-26 05:33N 38°18' W 010°05'1111.3
2016-Jul-26 04:33N 38°29' W 010°08'1111.1
2016-Jul-26 03:33N 38°39' W 010°11'1111.1
2016-Jul-26 02:34N 38°50' W 010°12'1110.6
2016-Jul-26 01:33N 39°01' W 010°12'1111.0
2016-Jul-26 00:34N 39°12' W 010°12'1110.8
2016-Jul-25 23:34N 39°23' W 010°12'1111.1
2016-Jul-25 22:33N 39°34' W 010°11'1110.6
2016-Jul-25 21:33N 39°45' W 010°11'1110.7
2016-Jul-25 20:34N 39°55' W 010°12'2110.5
2016-Jul-25 18:33N 40°16' W 010°11'41010.4
2016-Jul-24 03:10N 46°49' W 007°29'6 9.6
2016-Jul-24 02:33N 46°54' W 007°25'1110.4
2016-Jul-24 01:33N 47°03' W 007°18'1010.3
2016-Jul-24 00:34N 47°12' W 007°10'1010.2
2016-Jul-23 23:33N 47°21' W 007°03'1111.3
2016-Jul-23 22:33N 47°31' W 006°55'1312.1
2016-Jul-23 21:28N 47°42' W 006°46'1111.3
2016-Jul-23 20:32N 47°52' W 006°38'1110.9
2016-Jul-23 19:30N 48°02' W 006°30'1010.2
2016-Jul-23 18:31N 48°10' W 006°23'11 9.1
2016-Jul-23 17:18N 48°20' W 006°15'25 9.0
2016-Jul-23 14:29N 48°42' W 005°57'1010.6
2016-Jul-23 13:33N 48°51' W 005°49'1211.1
2016-Jul-23 12:28N 48°59' W 005°35'1111.5
2016-Jul-23 11:33N 49°04' W 005°21'1211.3
2016-Jul-23 10:32N 49°10' W 005°06'1010.4
2016-Jul-23 09:33N 49°15' W 004°53'13 9.1
2016-Jul-23 08:09N 49°22' W 004°36'5 8.6
2016-Jul-23 07:33N 49°24' W 004°29'27 9.2
2016-Jul-23 04:34N 49°38' W 003°52'1211.5
2016-Jul-23 03:34N 49°44' W 003°37'1212.4
2016-Jul-23 02:34N 49°50' W 003°21'1212.1
2016-Jul-23 01:33N 49°57' W 003°05'1111.0
2016-Jul-23 00:33N 50°01' W 002°49'10 9.8
2016-Jul-22 23:32N 50°03' W 002°34'8 8.4
2016-Jul-22 22:34N 50°05' W 002°21'7 7.1
2016-Jul-22 21:34N 50°06' W 002°10'7 6.8
2016-Jul-22 20:33N 50°08' W 002°00'8 7.8
2016-Jul-22 19:33N 50°10' W 001°48'10 9.8
2016-Jul-22 18:34N 50°13' W 001°34'1211.8
2016-Jul-22 17:34N 50°16' W 001°16'1313.4
2016-Jul-22 16:33N 50°20' W 000°56'1313.2
2016-Jul-22 15:34N 50°23' W 000°36'1312.6
2016-Jul-22 14:34N 50°26' W 000°17'1211.6
2016-Jul-22 13:33N 50°29' E 000°01'1110.6
2016-Jul-22 12:34N 50°32' E 000°17'10 9.9
2016-Jul-22 11:33N 50°35' E 000°32'9 9.0
2016-Jul-22 10:33N 50°40' E 000°44'1110.0
2016-Jul-22 09:26N 50°47' E 000°57'1111.7
2016-Jul-22 08:32N 50°53' E 001°11'1313.1
2016-Jul-22 07:34N 51°03' E 001°25'2311.3
2016-Jul-22 05:34N 51°18' E 001°50'10 9.6
2016-Jul-22 04:34N 51°26' E 001°59'9 8.7
2016-Jul-22 03:33N 51°33' E 002°09'8 8.5
2016-Jul-22 02:34N 51°39' E 002°17'9 8.8
2016-Jul-22 01:34N 51°46' E 002°27'10 9.8
2016-Jul-22 00:34N 51°53' E 002°37'1110.8
2016-Jul-21 23:34N 52°01' E 002°49'1110.8
2016-Jul-21 22:34N 52°02' E 003°06'1111.3
2016-Jul-21 21:34N 52°03' E 003°25'1111.2
2016-Jul-21 20:33N 52°03' E 003°43'10 9.6
2016-Jul-21 19:34N 52°01' E 003°58'7 7.2
2016-Jul-21 18:33N 51°57' E 004°08'0 0.0
2016-Jul-21 17:33N 51°57' E 004°08'0 0.0
2016-Jul-21 16:33N 51°57' E 004°08'0 0.0
2016-Jul-21 15:33N 51°57' E 004°08'0 0.0
2016-Jul-21 14:33N 51°57' E 004°08'0 0.0
2016-Jul-21 13:33N 51°57' E 004°08'0 0.0
2016-Jul-21 12:33N 51°57' E 004°08'0 0.0
2016-Jul-21 11:33N 51°57' E 004°08'0 0.0
2016-Jul-21 10:33N 51°57' E 004°08'0 0.0
2016-Jul-21 09:33N 51°57' E 004°08'0 0.0
2016-Jul-21 08:30N 51°57' E 004°08'0 0.0
2016-Jul-21 07:33N 51°57' E 004°08'0 0.0
2016-Jul-21 06:33N 51°57' E 004°08'0 0.0
2016-Jul-21 05:33N 51°57' E 004°08'0 0.0
2016-Jul-21 04:33N 51°57' E 004°08'0 0.0
2016-Jul-21 03:33N 51°57' E 004°08'0 0.0
2016-Jul-21 02:33N 51°57' E 004°08'0 0.0
2016-Jul-21 01:33N 51°57' E 004°08'0 0.0
2016-Jul-21 00:33N 51°57' E 004°08'0 0.0
2016-Jul-20 23:33N 51°57' E 004°08'0 0.0
2016-Jul-20 22:33N 51°57' E 004°08'0 0.0
2016-Jul-20 21:33N 51°57' E 004°08'0 0.0
2016-Jul-20 20:33N 51°57' E 004°08'0 0.0
2016-Jul-20 19:33N 51°57' E 004°08'0 0.0
2016-Jul-20 18:33N 51°57' E 004°08'0 0.0
2016-Jul-20 17:33N 51°57' E 004°08'0 0.0
2016-Jul-20 16:33N 51°57' E 004°08'0 0.0
2016-Jul-20 15:33N 51°57' E 004°08'0 0.0
2016-Jul-20 14:33N 51°57' E 004°08'0 0.0
2016-Jul-20 13:33N 51°57' E 004°08'0 0.0
2016-Jul-20 12:33N 51°57' E 004°08'0 0.0
2016-Jul-20 11:30N 51°57' E 004°08'0 0.0
2016-Jul-20 10:33N 51°57' E 004°08'0 0.0
2016-Jul-20 09:33N 51°57' E 004°08'0 0.0
2016-Jul-20 08:33N 51°57' E 004°08'0 0.0
2016-Jul-20 07:33N 51°57' E 004°08'0 0.0
2016-Jul-20 06:33N 51°57' E 004°08'0 0.3
2016-Jul-20 05:33N 51°57' E 004°08'5 5.3
2016-Jul-20 04:33N 51°60' E 004°00'9 8.8
2016-Jul-20 03:34N 52°02' E 003°46'8 8.0
2016-Jul-20 02:33N 51°58' E 003°35'8 7.6
2016-Jul-20 01:33N 51°56' E 003°23'1111.1
2016-Jul-20 00:33N 51°53' E 003°06'1312.5
2016-Jul-19 23:31N 51°48' E 002°47'1111.5
2016-Jul-19 22:33N 51°42' E 002°32'1110.9
2016-Jul-19 21:33N 51°34' E 002°20'1010.0
2016-Jul-19 20:33N 51°26' E 002°09'9 9.4
2016-Jul-19 19:33N 51°17' E 002°08'9 8.7
2016-Jul-19 18:33N 51°12' E 001°57'9 9.3
2016-Jul-19 17:33N 51°07' E 001°44'10 9.7
2016-Jul-19 16:33N 50°59' E 001°34'1110.6
2016-Jul-19 15:33N 50°50' E 001°25'1111.0
2016-Jul-19 14:33N 50°40' E 001°18'3311.1
2016-Jul-19 11:33N 50°24' E 000°33'1110.8
2016-Jul-19 10:33N 50°22' E 000°16'1110.9
2016-Jul-19 09:33N 50°19' W 000°00'1211.8
2016-Jul-19 08:33N 50°16' W 000°18'1212.3
2016-Jul-19 07:33N 50°13' W 000°37'3913.1
2016-Jul-19 04:33N 50°03' W 001°36'1110.9
2016-Jul-19 03:33N 50°00' W 001°52'11 9.5
2016-Jul-19 02:23N 49°57' W 002°09'7 8.7
2016-Jul-19 01:33N 49°55' W 002°20'9 8.7
2016-Jul-19 00:33N 49°53' W 002°33'9 9.4
2016-Jul-18 23:33N 49°51' W 002°47'1010.3
2016-Jul-18 22:33N 49°47' W 003°02'1111.0
2016-Jul-18 21:33N 49°41' W 003°16'1111.2
2016-Jul-18 20:33N 49°35' W 003°31'1111.4
2016-Jul-18 19:33N 49°30' W 003°46'1211.8
2016-Jul-18 18:33N 49°24' W 004°02'1212.1
2016-Jul-18 17:33N 49°18' W 004°18'1212.5
2016-Jul-18 16:33N 49°11' W 004°34'1312.8
2016-Jul-18 15:33N 49°05' W 004°51'1312.9
2016-Jul-18 14:33N 48°58' W 005°08'1412.8
2016-Jul-18 13:27N 48°51' W 005°27'1612.1
2016-Jul-18 12:06N 48°39' W 005°43'812.4
2016-Jul-18 11:30N 48°32' W 005°48'  

Dump ship's entire track history